sensor_id;sensor_type;location;lat;lon;timestamp;P1;durP1;ratioP1;P2;durP2;ratioP2
61038;SDS011;46919;45.816;3.104;2023-03-11T00:02:12;3.65;;;2.03;;
61038;SDS011;46919;45.816;3.104;2023-03-11T00:04:38;4.38;;;2.13;;
61038;SDS011;46919;45.816;3.104;2023-03-11T00:07:07;3.05;;;1.73;;
61038;SDS011;46919;45.816;3.104;2023-03-11T00:09:33;4.22;;;2.20;;
61038;SDS011;46919;45.816;3.104;2023-03-11T00:11:59;3.25;;;1.95;;
61038;SDS011;46919;45.816;3.104;2023-03-11T00:14:25;3.90;;;2.13;;
61038;SDS011;46919;45.816;3.104;2023-03-11T00:16:50;3.88;;;2.20;;
61038;SDS011;46919;45.816;3.104;2023-03-11T00:19:16;4.60;;;2.28;;
61038;SDS011;46919;45.816;3.104;2023-03-11T00:21:41;3.72;;;1.92;;
61038;SDS011;46919;45.816;3.104;2023-03-11T00:24:07;4.95;;;2.47;;
61038;SDS011;46919;45.816;3.104;2023-03-11T00:26:32;4.30;;;2.50;;
61038;SDS011;46919;45.816;3.104;2023-03-11T00:28:58;7.95;;;2.55;;
61038;SDS011;46919;45.816;3.104;2023-03-11T00:31:23;3.45;;;2.20;;
61038;SDS011;46919;45.816;3.104;2023-03-11T00:33:50;3.13;;;2.35;;
61038;SDS011;46919;45.816;3.104;2023-03-11T00:36:20;3.33;;;2.50;;
61038;SDS011;46919;45.816;3.104;2023-03-11T00:38:48;4.32;;;2.67;;
61038;SDS011;46919;45.816;3.104;2023-03-11T00:41:14;3.28;;;2.30;;
61038;SDS011;46919;45.816;3.104;2023-03-11T00:43:40;2.75;;;2.25;;
61038;SDS011;46919;45.816;3.104;2023-03-11T00:46:05;4.88;;;2.40;;
61038;SDS011;46919;45.816;3.104;2023-03-11T00:48:30;2.88;;;2.25;;
61038;SDS011;46919;45.816;3.104;2023-03-11T00:50:56;2.75;;;2.22;;
61038;SDS011;46919;45.816;3.104;2023-03-11T00:53:22;4.88;;;2.60;;
61038;SDS011;46919;45.816;3.104;2023-03-11T00:55:48;3.90;;;2.60;;
61038;SDS011;46919;45.816;3.104;2023-03-11T00:58:13;4.15;;;2.55;;
61038;SDS011;46919;45.816;3.104;2023-03-11T01:00:38;3.08;;;2.45;;
61038;SDS011;46919;45.816;3.104;2023-03-11T01:03:04;3.10;;;2.42;;
61038;SDS011;46919;45.816;3.104;2023-03-11T01:05:31;4.90;;;2.30;;
61038;SDS011;46919;45.816;3.104;2023-03-11T01:07:57;2.47;;;2.25;;
61038;SDS011;46919;45.816;3.104;2023-03-11T01:10:23;3.78;;;2.40;;
61038;SDS011;46919;45.816;3.104;2023-03-11T01:12:49;4.55;;;2.80;;
61038;SDS011;46919;45.816;3.104;2023-03-11T01:15:16;4.15;;;3.60;;
61038;SDS011;46919;45.816;3.104;2023-03-11T01:17:46;3.85;;;2.85;;
61038;SDS011;46919;45.816;3.104;2023-03-11T01:20:12;4.97;;;3.45;;
61038;SDS011;46919;45.816;3.104;2023-03-11T01:22:38;4.70;;;3.17;;
61038;SDS011;46919;45.816;3.104;2023-03-11T01:25:03;6.18;;;3.42;;
61038;SDS011;46919;45.816;3.104;2023-03-11T01:27:29;4.05;;;3.40;;
61038;SDS011;46919;45.816;3.104;2023-03-11T01:29:55;5.55;;;3.55;;
61038;SDS011;46919;45.816;3.104;2023-03-11T01:32:20;4.65;;;3.40;;
61038;SDS011;46919;45.816;3.104;2023-03-11T01:34:46;5.32;;;3.70;;
61038;SDS011;46919;45.816;3.104;2023-03-11T01:37:11;6.03;;;3.63;;
61038;SDS011;46919;45.816;3.104;2023-03-11T01:39:36;4.85;;;2.70;;
61038;SDS011;46919;45.816;3.104;2023-03-11T01:42:02;4.28;;;2.90;;
61038;SDS011;46919;45.816;3.104;2023-03-11T01:44:27;4.03;;;3.17;;
61038;SDS011;46919;45.816;3.104;2023-03-11T01:49:21;4.88;;;3.00;;
61038;SDS011;46919;45.816;3.104;2023-03-11T01:51:48;4.47;;;3.08;;
61038;SDS011;46919;45.816;3.104;2023-03-11T01:56:41;4.00;;;3.05;;
61038;SDS011;46919;45.816;3.104;2023-03-11T01:59:09;3.13;;;2.78;;
61038;SDS011;46919;45.816;3.104;2023-03-11T02:01:39;3.70;;;2.85;;
61038;SDS011;46919;45.816;3.104;2023-03-11T02:04:21;3.58;;;2.85;;
61038;SDS011;46919;45.816;3.104;2023-03-11T02:06:47;3.47;;;2.80;;
61038;SDS011;46919;45.816;3.104;2023-03-11T02:09:13;3.00;;;2.67;;
61038;SDS011;46919;45.816;3.104;2023-03-11T02:11:39;2.65;;;2.40;;
61038;SDS011;46919;45.816;3.104;2023-03-11T02:14:05;3.50;;;2.10;;
61038;SDS011;46919;45.816;3.104;2023-03-11T02:16:32;2.70;;;2.45;;
61038;SDS011;46919;45.816;3.104;2023-03-11T02:18:58;4.97;;;3.00;;
61038;SDS011;46919;45.816;3.104;2023-03-11T02:21:29;5.78;;;3.60;;
61038;SDS011;46919;45.816;3.104;2023-03-11T02:27:06;4.32;;;3.28;;
61038;SDS011;46919;45.816;3.104;2023-03-11T02:29:33;3.10;;;2.78;;
61038;SDS011;46919;45.816;3.104;2023-03-11T02:32:00;4.45;;;3.42;;
61038;SDS011;46919;45.816;3.104;2023-03-11T02:34:30;4.25;;;3.40;;
61038;SDS011;46919;45.816;3.104;2023-03-11T02:36:57;4.53;;;3.10;;
61038;SDS011;46919;45.816;3.104;2023-03-11T02:39:29;3.58;;;2.80;;
61038;SDS011;46919;45.816;3.104;2023-03-11T02:41:55;2.50;;;2.30;;
61038;SDS011;46919;45.816;3.104;2023-03-11T02:44:22;2.42;;;2.10;;
61038;SDS011;46919;45.816;3.104;2023-03-11T02:46:48;2.47;;;2.15;;
61038;SDS011;46919;45.816;3.104;2023-03-11T02:49:13;2.50;;;2.30;;
61038;SDS011;46919;45.816;3.104;2023-03-11T02:51:39;2.42;;;1.80;;
61038;SDS011;46919;45.816;3.104;2023-03-11T02:54:05;2.67;;;1.67;;
61038;SDS011;46919;45.816;3.104;2023-03-11T02:56:31;2.33;;;1.73;;
61038;SDS011;46919;45.816;3.104;2023-03-11T02:58:56;2.53;;;1.85;;
61038;SDS011;46919;45.816;3.104;2023-03-11T03:01:22;2.38;;;2.10;;
61038;SDS011;46919;45.816;3.104;2023-03-11T03:03:47;2.25;;;2.00;;
61038;SDS011;46919;45.816;3.104;2023-03-11T03:06:13;2.72;;;2.25;;
61038;SDS011;46919;45.816;3.104;2023-03-11T03:08:38;2.40;;;2.10;;
61038;SDS011;46919;45.816;3.104;2023-03-11T03:11:04;1.83;;;1.67;;
61038;SDS011;46919;45.816;3.104;2023-03-11T03:13:29;1.90;;;1.73;;
61038;SDS011;46919;45.816;3.104;2023-03-11T03:15:56;1.67;;;1.58;;
61038;SDS011;46919;45.816;3.104;2023-03-11T03:18:22;1.92;;;1.60;;
61038;SDS011;46919;45.816;3.104;2023-03-11T03:20:47;2.28;;;1.63;;
61038;SDS011;46919;45.816;3.104;2023-03-11T03:23:13;1.63;;;1.52;;
61038;SDS011;46919;45.816;3.104;2023-03-11T03:25:41;1.60;;;1.30;;
61038;SDS011;46919;45.816;3.104;2023-03-11T03:28:08;1.60;;;1.27;;
61038;SDS011;46919;45.816;3.104;2023-03-11T03:30:34;2.20;;;2.00;;
61038;SDS011;46919;45.816;3.104;2023-03-11T03:32:59;2.17;;;1.80;;
61038;SDS011;46919;45.816;3.104;2023-03-11T03:35:25;1.88;;;1.67;;
61038;SDS011;46919;45.816;3.104;2023-03-11T03:37:50;1.77;;;1.60;;
61038;SDS011;46919;45.816;3.104;2023-03-11T03:40:16;1.38;;;1.27;;
61038;SDS011;46919;45.816;3.104;2023-03-11T03:42:41;3.15;;;2.30;;
61038;SDS011;46919;45.816;3.104;2023-03-11T03:45:07;2.80;;;1.75;;
61038;SDS011;46919;45.816;3.104;2023-03-11T03:47:33;3.20;;;1.58;;
61038;SDS011;46919;45.816;3.104;2023-03-11T03:50:01;1.55;;;1.45;;
61038;SDS011;46919;45.816;3.104;2023-03-11T03:52:27;2.50;;;1.30;;
61038;SDS011;46919;45.816;3.104;2023-03-11T03:54:53;1.40;;;1.30;;
61038;SDS011;46919;45.816;3.104;2023-03-11T03:57:18;1.20;;;1.00;;
61038;SDS011;46919;45.816;3.104;2023-03-11T03:59:43;1.95;;;1.05;;
61038;SDS011;46919;45.816;3.104;2023-03-11T04:02:09;1.40;;;1.20;;
61038;SDS011;46919;45.816;3.104;2023-03-11T04:04:34;1.38;;;1.10;;
61038;SDS011;46919;45.816;3.104;2023-03-11T04:07:02;1.35;;;1.10;;
61038;SDS011;46919;45.816;3.104;2023-03-11T04:09:29;1.10;;;0.93;;
61038;SDS011;46919;45.816;3.104;2023-03-11T04:11:55;1.20;;;1.00;;
61038;SDS011;46919;45.816;3.104;2023-03-11T04:14:20;0.95;;;0.82;;
61038;SDS011;46919;45.816;3.104;2023-03-11T04:16:46;1.10;;;0.80;;
61038;SDS011;46919;45.816;3.104;2023-03-11T04:19:11;0.98;;;0.98;;
61038;SDS011;46919;45.816;3.104;2023-03-11T04:21:37;0.95;;;0.85;;
61038;SDS011;46919;45.816;3.104;2023-03-11T04:24:02;0.80;;;0.80;;
61038;SDS011;46919;45.816;3.104;2023-03-11T04:26:28;1.08;;;1.00;;
61038;SDS011;46919;45.816;3.104;2023-03-11T04:28:53;1.38;;;1.20;;
61038;SDS011;46919;45.816;3.104;2023-03-11T04:31:19;1.30;;;1.20;;
61038;SDS011;46919;45.816;3.104;2023-03-11T04:33:44;1.63;;;1.20;;
61038;SDS011;46919;45.816;3.104;2023-03-11T04:36:10;1.25;;;1.15;;
61038;SDS011;46919;45.816;3.104;2023-03-11T04:38:36;1.40;;;1.10;;
61038;SDS011;46919;45.816;3.104;2023-03-11T04:41:02;1.52;;;1.30;;
61038;SDS011;46919;45.816;3.104;2023-03-11T04:43:28;1.25;;;1.20;;
61038;SDS011;46919;45.816;3.104;2023-03-11T04:45:54;1.40;;;1.30;;
61038;SDS011;46919;45.816;3.104;2023-03-11T04:48:19;2.55;;;1.38;;
61038;SDS011;46919;45.816;3.104;2023-03-11T04:50:45;2.45;;;1.60;;
61038;SDS011;46919;45.816;3.104;2023-03-11T04:53:10;1.23;;;1.13;;
61038;SDS011;46919;45.816;3.104;2023-03-11T04:55:36;1.50;;;1.20;;
61038;SDS011;46919;45.816;3.104;2023-03-11T04:58:01;1.50;;;1.38;;
61038;SDS011;46919;45.816;3.104;2023-03-11T05:00:26;1.48;;;1.20;;
61038;SDS011;46919;45.816;3.104;2023-03-11T05:02:52;1.08;;;0.98;;
61038;SDS011;46919;45.816;3.104;2023-03-11T05:05:17;1.50;;;1.30;;
61038;SDS011;46919;45.816;3.104;2023-03-11T05:07:44;1.60;;;1.33;;
61038;SDS011;46919;45.816;3.104;2023-03-11T05:10:09;1.00;;;1.00;;
61038;SDS011;46919;45.816;3.104;2023-03-11T05:12:35;1.40;;;0.65;;
61038;SDS011;46919;45.816;3.104;2023-03-11T05:15:00;0.70;;;0.70;;
61038;SDS011;46919;45.816;3.104;2023-03-11T05:17:26;0.85;;;0.85;;
61038;SDS011;46919;45.816;3.104;2023-03-11T05:19:51;2.75;;;1.52;;
61038;SDS011;46919;45.816;3.104;2023-03-11T05:22:20;3.28;;;1.88;;
61038;SDS011;46919;45.816;3.104;2023-03-11T05:24:46;1.30;;;1.20;;
61038;SDS011;46919;45.816;3.104;2023-03-11T05:27:12;1.20;;;1.10;;
61038;SDS011;46919;45.816;3.104;2023-03-11T05:29:38;1.83;;;1.30;;
61038;SDS011;46919;45.816;3.104;2023-03-11T05:32:03;1.48;;;1.38;;
61038;SDS011;46919;45.816;3.104;2023-03-11T05:34:29;1.58;;;1.48;;
61038;SDS011;46919;45.816;3.104;2023-03-11T05:36:54;2.28;;;2.08;;
61038;SDS011;46919;45.816;3.104;2023-03-11T05:39:20;2.88;;;1.73;;
61038;SDS011;46919;45.816;3.104;2023-03-11T05:41:45;1.45;;;1.30;;
61038;SDS011;46919;45.816;3.104;2023-03-11T05:44:11;2.55;;;1.77;;
61038;SDS011;46919;45.816;3.104;2023-03-11T05:46:36;1.77;;;1.60;;
61038;SDS011;46919;45.816;3.104;2023-03-11T05:49:02;2.10;;;1.90;;
61038;SDS011;46919;45.816;3.104;2023-03-11T05:51:27;1.63;;;1.50;;
61038;SDS011;46919;45.816;3.104;2023-03-11T05:53:53;1.50;;;1.40;;
61038;SDS011;46919;45.816;3.104;2023-03-11T05:56:19;1.45;;;1.10;;
61038;SDS011;46919;45.816;3.104;2023-03-11T05:58:46;0.95;;;0.90;;
61038;SDS011;46919;45.816;3.104;2023-03-11T06:01:15;1.25;;;0.82;;
61038;SDS011;46919;45.816;3.104;2023-03-11T06:03:42;0.85;;;0.70;;
61038;SDS011;46919;45.816;3.104;2023-03-11T06:06:09;0.70;;;0.70;;
61038;SDS011;46919;45.816;3.104;2023-03-11T06:08:36;0.70;;;0.65;;
61038;SDS011;46919;45.816;3.104;2023-03-11T06:11:03;0.60;;;0.60;;
61038;SDS011;46919;45.816;3.104;2023-03-11T06:13:30;0.50;;;0.50;;
61038;SDS011;46919;45.816;3.104;2023-03-11T06:15:56;0.63;;;0.63;;
61038;SDS011;46919;45.816;3.104;2023-03-11T06:18:21;0.70;;;0.70;;
61038;SDS011;46919;45.816;3.104;2023-03-11T06:20:47;1.50;;;0.82;;
61038;SDS011;46919;45.816;3.104;2023-03-11T06:23:12;0.73;;;0.70;;
61038;SDS011;46919;45.816;3.104;2023-03-11T06:25:38;0.70;;;0.70;;
61038;SDS011;46919;45.816;3.104;2023-03-11T06:28:04;0.60;;;0.60;;
61038;SDS011;46919;45.816;3.104;2023-03-11T06:30:30;1.00;;;0.88;;
61038;SDS011;46919;45.816;3.104;2023-03-11T06:32:55;0.90;;;0.90;;
61038;SDS011;46919;45.816;3.104;2023-03-11T06:35:21;1.20;;;1.10;;
61038;SDS011;46919;45.816;3.104;2023-03-11T06:37:46;2.95;;;1.45;;
61038;SDS011;46919;45.816;3.104;2023-03-11T06:40:12;1.15;;;1.00;;
61038;SDS011;46919;45.816;3.104;2023-03-11T06:42:37;0.82;;;0.82;;
61038;SDS011;46919;45.816;3.104;2023-03-11T06:45:03;0.90;;;0.90;;
61038;SDS011;46919;45.816;3.104;2023-03-11T06:47:29;0.80;;;0.80;;
61038;SDS011;46919;45.816;3.104;2023-03-11T06:49:54;0.80;;;0.73;;
61038;SDS011;46919;45.816;3.104;2023-03-11T06:52:19;0.60;;;0.60;;
61038;SDS011;46919;45.816;3.104;2023-03-11T06:54:45;0.73;;;0.70;;
61038;SDS011;46919;45.816;3.104;2023-03-11T06:57:11;1.45;;;1.30;;
61038;SDS011;46919;45.816;3.104;2023-03-11T06:59:36;8.38;;;6.60;;
61038;SDS011;46919;45.816;3.104;2023-03-11T07:02:02;2.90;;;2.60;;
61038;SDS011;46919;45.816;3.104;2023-03-11T07:04:29;1.30;;;1.20;;
61038;SDS011;46919;45.816;3.104;2023-03-11T07:06:55;1.50;;;1.40;;
61038;SDS011;46919;45.816;3.104;2023-03-11T07:09:20;1.40;;;1.30;;
61038;SDS011;46919;45.816;3.104;2023-03-11T07:11:47;0.70;;;0.70;;
61038;SDS011;46919;45.816;3.104;2023-03-11T07:14:12;1.23;;;1.13;;
61038;SDS011;46919;45.816;3.104;2023-03-11T07:16:38;1.17;;;1.08;;
61038;SDS011;46919;45.816;3.104;2023-03-11T07:19:04;1.30;;;1.02;;
61038;SDS011;46919;45.816;3.104;2023-03-11T07:21:29;1.13;;;1.02;;
61038;SDS011;46919;45.816;3.104;2023-03-11T07:23:56;0.95;;;0.95;;
61038;SDS011;46919;45.816;3.104;2023-03-11T07:26:24;1.20;;;1.10;;
61038;SDS011;46919;45.816;3.104;2023-03-11T07:28:52;1.30;;;1.20;;
61038;SDS011;46919;45.816;3.104;2023-03-11T07:31:20;1.40;;;1.30;;
61038;SDS011;46919;45.816;3.104;2023-03-11T07:33:47;2.17;;;1.63;;
61038;SDS011;46919;45.816;3.104;2023-03-11T07:36:14;4.40;;;1.77;;
61038;SDS011;46919;45.816;3.104;2023-03-11T07:38:42;2.05;;;1.90;;
61038;SDS011;46919;45.816;3.104;2023-03-11T07:41:08;4.18;;;3.15;;
61038;SDS011;46919;45.816;3.104;2023-03-11T07:43:35;7.07;;;5.50;;
61038;SDS011;46919;45.816;3.104;2023-03-11T07:48:30;11.77;;;9.10;;
61038;SDS011;46919;45.816;3.104;2023-03-11T07:51:03;3.53;;;2.55;;
61038;SDS011;46919;45.816;3.104;2023-03-11T07:53:30;2.20;;;2.00;;
61038;SDS011;46919;45.816;3.104;2023-03-11T07:55:56;2.67;;;2.40;;
61038;SDS011;46919;45.816;3.104;2023-03-11T07:58:22;2.22;;;2.03;;
61038;SDS011;46919;45.816;3.104;2023-03-11T08:00:49;2.50;;;2.28;;
61038;SDS011;46919;45.816;3.104;2023-03-11T08:03:14;3.75;;;2.75;;
61038;SDS011;46919;45.816;3.104;2023-03-11T08:05:40;3.15;;;2.70;;
61038;SDS011;46919;45.816;3.104;2023-03-11T08:08:05;3.20;;;2.83;;
61038;SDS011;46919;45.816;3.104;2023-03-11T08:10:31;4.05;;;3.20;;
61038;SDS011;46919;45.816;3.104;2023-03-11T08:12:56;3.60;;;3.30;;
61038;SDS011;46919;45.816;3.104;2023-03-11T08:15:22;4.38;;;3.92;;
61038;SDS011;46919;45.816;3.104;2023-03-11T08:17:47;3.92;;;3.53;;
61038;SDS011;46919;45.816;3.104;2023-03-11T08:20:12;4.00;;;3.60;;
61038;SDS011;46919;45.816;3.104;2023-03-11T08:22:38;4.72;;;4.22;;
61038;SDS011;46919;45.816;3.104;2023-03-11T08:25:03;5.88;;;5.28;;
61038;SDS011;46919;45.816;3.104;2023-03-11T08:27:29;5.63;;;5.05;;
61038;SDS011;46919;45.816;3.104;2023-03-11T08:29:54;7.57;;;5.60;;
61038;SDS011;46919;45.816;3.104;2023-03-11T08:32:20;7.03;;;5.40;;
61038;SDS011;46919;45.816;3.104;2023-03-11T08:34:45;5.00;;;4.18;;
61038;SDS011;46919;45.816;3.104;2023-03-11T08:37:11;4.15;;;3.72;;
61038;SDS011;46919;45.816;3.104;2023-03-11T08:39:36;4.40;;;4.00;;
61038;SDS011;46919;45.816;3.104;2023-03-11T08:42:01;4.55;;;4.13;;
61038;SDS011;46919;45.816;3.104;2023-03-11T08:44:27;4.43;;;4.03;;
61038;SDS011;46919;45.816;3.104;2023-03-11T08:46:53;5.07;;;4.13;;
61038;SDS011;46919;45.816;3.104;2023-03-11T08:49:18;3.75;;;3.45;;
61038;SDS011;46919;45.816;3.104;2023-03-11T08:51:44;3.92;;;3.50;;
61038;SDS011;46919;45.816;3.104;2023-03-11T08:54:09;4.05;;;3.65;;
61038;SDS011;46919;45.816;3.104;2023-03-11T08:56:35;4.65;;;4.10;;
61038;SDS011;46919;45.816;3.104;2023-03-11T08:59:00;4.38;;;3.97;;
61038;SDS011;46919;45.816;3.104;2023-03-11T09:01:26;4.95;;;4.38;;
61038;SDS011;46919;45.816;3.104;2023-03-11T09:03:53;5.40;;;4.60;;
61038;SDS011;46919;45.816;3.104;2023-03-11T09:06:19;4.00;;;3.60;;
61038;SDS011;46919;45.816;3.104;2023-03-11T09:08:45;3.35;;;3.05;;
61038;SDS011;46919;45.816;3.104;2023-03-11T09:11:14;3.30;;;3.00;;
61038;SDS011;46919;45.816;3.104;2023-03-11T09:13:41;3.35;;;2.90;;
61038;SDS011;46919;45.816;3.104;2023-03-11T09:16:14;4.82;;;3.63;;
61038;SDS011;46919;45.816;3.104;2023-03-11T09:18:41;3.70;;;3.40;;
61038;SDS011;46919;45.816;3.104;2023-03-11T09:21:07;2.42;;;2.22;;
61038;SDS011;46919;45.816;3.104;2023-03-11T09:23:33;4.65;;;3.65;;
61038;SDS011;46919;45.816;3.104;2023-03-11T09:25:58;3.58;;;2.67;;
61038;SDS011;46919;45.816;3.104;2023-03-11T09:28:23;4.93;;;3.47;;
61038;SDS011;46919;45.816;3.104;2023-03-11T09:30:49;2.67;;;1.77;;
61038;SDS011;46919;45.816;3.104;2023-03-11T09:33:14;2.03;;;1.88;;
61038;SDS011;46919;45.816;3.104;2023-03-11T09:35:40;1.90;;;1.80;;
61038;SDS011;46919;45.816;3.104;2023-03-11T09:38:05;1.73;;;1.60;;
61038;SDS011;46919;45.816;3.104;2023-03-11T09:45:50;2.63;;;1.20;;
61038;SDS011;46919;45.816;3.104;2023-03-11T09:48:30;1.10;;;0.95;;
61038;SDS011;46919;45.816;3.104;2023-03-11T09:54:03;1.40;;;1.30;;
61038;SDS011;46919;45.816;3.104;2023-03-11T09:56:33;1.88;;;1.45;;
61038;SDS011;46919;45.816;3.104;2023-03-11T09:59:02;1.50;;;1.40;;
61038;SDS011;46919;45.816;3.104;2023-03-11T10:01:35;3.25;;;1.45;;
61038;SDS011;46919;45.816;3.104;2023-03-11T10:06:34;2.58;;;1.77;;
61038;SDS011;46919;45.816;3.104;2023-03-11T10:20:26;6.07;;;1.80;;
61038;SDS011;46919;45.816;3.104;2023-03-11T10:23:01;1.40;;;1.30;;
61038;SDS011;46919;45.816;3.104;2023-03-11T10:28:21;1.67;;;1.30;;
61038;SDS011;46919;45.816;3.104;2023-03-11T10:30:56;1.33;;;1.20;;
61038;SDS011;46919;45.816;3.104;2023-03-11T10:33:31;1.33;;;1.23;;
61038;SDS011;46919;45.816;3.104;2023-03-11T10:36:05;1.70;;;1.60;;
61038;SDS011;46919;45.816;3.104;2023-03-11T10:38:36;1.50;;;1.40;;
61038;SDS011;46919;45.816;3.104;2023-03-11T10:43:56;2.30;;;2.10;;
61038;SDS011;46919;45.816;3.104;2023-03-11T10:46:28;3.03;;;1.90;;
61038;SDS011;46919;45.816;3.104;2023-03-11T10:48:54;1.77;;;1.58;;
61038;SDS011;46919;45.816;3.104;2023-03-11T10:51:23;2.05;;;1.88;;
61038;SDS011;46919;45.816;3.104;2023-03-11T10:53:52;2.75;;;2.08;;
61038;SDS011;46919;45.816;3.104;2023-03-11T10:58:50;2.15;;;1.95;;
61038;SDS011;46919;45.816;3.104;2023-03-11T11:01:16;2.00;;;1.90;;
61038;SDS011;46919;45.816;3.104;2023-03-11T11:03:42;2.25;;;1.55;;
61038;SDS011;46919;45.816;3.104;2023-03-11T11:09:15;2.92;;;2.67;;
61038;SDS011;46919;45.816;3.104;2023-03-11T11:17:44;1.67;;;1.58;;
61038;SDS011;46919;45.816;3.104;2023-03-11T11:20:03;1.30;;;1.20;;
61038;SDS011;46919;45.816;3.104;2023-03-11T11:22:37;1.88;;;1.77;;
61038;SDS011;46919;45.816;3.104;2023-03-11T11:25:27;1.60;;;1.50;;
61038;SDS011;46919;45.816;3.104;2023-03-11T11:27:57;1.35;;;1.25;;
61038;SDS011;46919;45.816;3.104;2023-03-11T11:30:29;1.30;;;1.20;;
61038;SDS011;46919;45.816;3.104;2023-03-11T11:32:55;1.20;;;1.10;;
61038;SDS011;46919;45.816;3.104;2023-03-11T11:35:22;1.58;;;1.48;;
61038;SDS011;46919;45.816;3.104;2023-03-11T11:40:31;1.20;;;1.10;;
61038;SDS011;46919;45.816;3.104;2023-03-11T11:43:04;1.30;;;1.20;;
61038;SDS011;46919;45.816;3.104;2023-03-11T11:45:36;1.40;;;1.30;;
61038;SDS011;46919;45.816;3.104;2023-03-11T11:48:16;1.80;;;1.65;;
61038;SDS011;46919;45.816;3.104;2023-03-11T11:50:52;1.70;;;1.60;;
61038;SDS011;46919;45.816;3.104;2023-03-11T11:53:39;4.40;;;2.40;;
61038;SDS011;46919;45.816;3.104;2023-03-11T11:56:24;2.30;;;2.10;;
61038;SDS011;46919;45.816;3.104;2023-03-11T11:58:50;2.08;;;1.92;;
61038;SDS011;46919;45.816;3.104;2023-03-11T12:01:21;2.20;;;2.00;;
61038;SDS011;46919;45.816;3.104;2023-03-11T12:04:28;1.60;;;1.50;;
61038;SDS011;46919;45.816;3.104;2023-03-11T12:07:31;1.40;;;1.30;;
61038;SDS011;46919;45.816;3.104;2023-03-11T12:15:57;1.50;;;1.40;;
61038;SDS011;46919;45.816;3.104;2023-03-11T12:18:48;1.30;;;1.20;;
61038;SDS011;46919;45.816;3.104;2023-03-11T12:30:22;2.22;;;2.03;;
61038;SDS011;46919;45.816;3.104;2023-03-11T12:32:56;1.27;;;1.17;;
61038;SDS011;46919;45.816;3.104;2023-03-11T12:35:29;1.98;;;1.50;;
61038;SDS011;46919;45.816;3.104;2023-03-11T12:45:58;1.85;;;1.75;;
61038;SDS011;46919;45.816;3.104;2023-03-11T12:50:53;1.70;;;1.45;;
61038;SDS011;46919;45.816;3.104;2023-03-11T12:56:28;1.05;;;1.02;;
61038;SDS011;46919;45.816;3.104;2023-03-11T12:59:06;2.47;;;1.75;;
61038;SDS011;46919;45.816;3.104;2023-03-11T13:01:49;2.13;;;1.30;;
61038;SDS011;46919;45.816;3.104;2023-03-11T13:10:13;1.52;;;1.38;;
61038;SDS011;46919;45.816;3.104;2023-03-11T13:12:43;1.00;;;1.00;;
61038;SDS011;46919;45.816;3.104;2023-03-11T13:23:31;1.05;;;0.95;;
61038;SDS011;46919;45.816;3.104;2023-03-11T13:39:35;1.10;;;1.00;;
61038;SDS011;46919;45.816;3.104;2023-03-11T13:42:13;0.93;;;0.90;;
61038;SDS011;46919;45.816;3.104;2023-03-11T13:44:45;1.00;;;0.90;;
61038;SDS011;46919;45.816;3.104;2023-03-11T13:47:15;0.80;;;0.80;;
61038;SDS011;46919;45.816;3.104;2023-03-11T13:52:24;2.00;;;0.95;;
61038;SDS011;46919;45.816;3.104;2023-03-11T13:57:25;1.30;;;1.20;;
61038;SDS011;46919;45.816;3.104;2023-03-11T13:59:56;2.35;;;1.30;;
61038;SDS011;46919;45.816;3.104;2023-03-11T14:02:27;1.57;;;1.33;;
61038;SDS011;46919;45.816;3.104;2023-03-11T14:04:57;2.85;;;1.60;;
61038;SDS011;46919;45.816;3.104;2023-03-11T14:07:28;2.13;;;1.33;;
61038;SDS011;46919;45.816;3.104;2023-03-11T14:12:35;1.67;;;1.25;;
61038;SDS011;46919;45.816;3.104;2023-03-11T14:15:01;1.48;;;1.35;;
61038;SDS011;46919;45.816;3.104;2023-03-11T14:17:31;1.30;;;1.20;;
61038;SDS011;46919;45.816;3.104;2023-03-11T14:20:09;1.20;;;1.05;;
61038;SDS011;46919;45.816;3.104;2023-03-11T14:22:40;1.27;;;1.17;;
61038;SDS011;46919;45.816;3.104;2023-03-11T14:25:09;3.30;;;1.70;;
61038;SDS011;46919;45.816;3.104;2023-03-11T14:28:05;2.20;;;2.00;;
61038;SDS011;46919;45.816;3.104;2023-03-11T14:30:32;3.78;;;1.70;;
61038;SDS011;46919;45.816;3.104;2023-03-11T14:33:00;5.22;;;2.83;;
61038;SDS011;46919;45.816;3.104;2023-03-11T14:35:29;2.10;;;1.95;;
61038;SDS011;46919;45.816;3.104;2023-03-11T14:37:55;2.03;;;1.92;;
61038;SDS011;46919;45.816;3.104;2023-03-11T14:40:31;2.00;;;1.80;;
61038;SDS011;46919;45.816;3.104;2023-03-11T14:43:02;1.75;;;1.65;;
61038;SDS011;46919;45.816;3.104;2023-03-11T14:45:31;1.60;;;1.50;;
61038;SDS011;46919;45.816;3.104;2023-03-11T14:50:48;1.83;;;1.67;;
61038;SDS011;46919;45.816;3.104;2023-03-11T14:53:16;1.25;;;1.15;;
61038;SDS011;46919;45.816;3.104;2023-03-11T14:55:50;2.10;;;1.90;;
61038;SDS011;46919;45.816;3.104;2023-03-11T14:58:22;3.35;;;2.72;;
61038;SDS011;46919;45.816;3.104;2023-03-11T15:01:12;1.75;;;1.58;;
61038;SDS011;46919;45.816;3.104;2023-03-11T15:03:50;3.17;;;2.97;;
61038;SDS011;46919;45.816;3.104;2023-03-11T15:06:20;3.13;;;2.83;;
61038;SDS011;46919;45.816;3.104;2023-03-11T15:08:51;3.72;;;1.95;;
61038;SDS011;46919;45.816;3.104;2023-03-11T15:11:23;3.78;;;3.47;;
61038;SDS011;46919;45.816;3.104;2023-03-11T15:13:52;3.80;;;3.50;;
61038;SDS011;46919;45.816;3.104;2023-03-11T15:16:23;4.18;;;3.70;;
61038;SDS011;46919;45.816;3.104;2023-03-11T15:18:57;3.83;;;3.50;;
61038;SDS011;46919;45.816;3.104;2023-03-11T15:21:24;3.25;;;2.97;;
61038;SDS011;46919;45.816;3.104;2023-03-11T15:23:51;4.88;;;2.55;;
61038;SDS011;46919;45.816;3.104;2023-03-11T15:26:26;3.88;;;3.28;;
61038;SDS011;46919;45.816;3.104;2023-03-11T15:28:54;2.70;;;2.50;;
61038;SDS011;46919;45.816;3.104;2023-03-11T15:33:48;1.92;;;1.83;;
61038;SDS011;46919;45.816;3.104;2023-03-11T15:39:17;2.05;;;1.90;;
61038;SDS011;46919;45.816;3.104;2023-03-11T15:44:33;1.98;;;1.88;;
61038;SDS011;46919;45.816;3.104;2023-03-11T15:47:00;2.22;;;2.03;;
61038;SDS011;46919;45.816;3.104;2023-03-11T15:49:27;3.97;;;2.83;;
61038;SDS011;46919;45.816;3.104;2023-03-11T15:51:57;2.88;;;2.05;;
61038;SDS011;46919;45.816;3.104;2023-03-11T15:54:23;2.67;;;2.30;;
61038;SDS011;46919;45.816;3.104;2023-03-11T15:56:49;2.45;;;2.25;;
61038;SDS011;46919;45.816;3.104;2023-03-11T15:59:15;4.20;;;2.30;;
61038;SDS011;46919;45.816;3.104;2023-03-11T16:01:41;2.78;;;2.30;;
61038;SDS011;46919;45.816;3.104;2023-03-11T16:04:11;2.55;;;2.30;;
61038;SDS011;46919;45.816;3.104;2023-03-11T16:06:38;4.03;;;3.00;;
61038;SDS011;46919;45.816;3.104;2023-03-11T16:09:04;11.30;;;6.60;;
61038;SDS011;46919;45.816;3.104;2023-03-11T16:11:29;6.57;;;4.95;;
61038;SDS011;46919;45.816;3.104;2023-03-11T16:13:56;5.57;;;4.38;;
61038;SDS011;46919;45.816;3.104;2023-03-11T16:16:22;5.00;;;3.70;;
61038;SDS011;46919;45.816;3.104;2023-03-11T16:18:48;5.55;;;4.30;;
61038;SDS011;46919;45.816;3.104;2023-03-11T16:21:15;3.90;;;3.50;;
61038;SDS011;46919;45.816;3.104;2023-03-11T16:23:42;3.45;;;2.83;;
61038;SDS011;46919;45.816;3.104;2023-03-11T16:26:08;3.05;;;2.60;;
61038;SDS011;46919;45.816;3.104;2023-03-11T16:28:35;3.88;;;3.35;;
61038;SDS011;46919;45.816;3.104;2023-03-11T16:31:01;4.10;;;3.10;;
61038;SDS011;46919;45.816;3.104;2023-03-11T16:33:27;2.88;;;2.08;;
61038;SDS011;46919;45.816;3.104;2023-03-11T16:35:52;2.00;;;1.90;;
61038;SDS011;46919;45.816;3.104;2023-03-11T16:38:18;2.60;;;2.40;;
61038;SDS011;46919;45.816;3.104;2023-03-11T16:40:44;3.05;;;2.60;;
61038;SDS011;46919;45.816;3.104;2023-03-11T16:43:18;3.05;;;1.88;;
61038;SDS011;46919;45.816;3.104;2023-03-11T16:45:44;2.17;;;1.98;;
61038;SDS011;46919;45.816;3.104;2023-03-11T16:48:09;2.70;;;2.30;;
61038;SDS011;46919;45.816;3.104;2023-03-11T16:50:34;2.10;;;1.90;;
61038;SDS011;46919;45.816;3.104;2023-03-11T16:53:00;3.20;;;2.33;;
61038;SDS011;46919;45.816;3.104;2023-03-11T16:55:25;3.28;;;2.53;;
61038;SDS011;46919;45.816;3.104;2023-03-11T16:57:51;4.28;;;2.95;;
61038;SDS011;46919;45.816;3.104;2023-03-11T17:00:19;3.05;;;2.38;;